Time;durP1;ratioP1;P1;durP2;ratioP2;P2;SDS_P1;SDS_P2;PMS_P1;PMS_P2;Temp;Humidity;BMP_temperature;BMP_pressure;BME280_temperature;BME280_humidity;BME280_pressure;Samples;Min_cycle;Max_cycle;Signal;HPM_P1;HPM_P2
2022/07/04 00:01:33;;;;;;;2.97;1.17;;;;;;;20.30;46.62;101966.94;5116155;27;20056;-63
2022/07/04 00:04:01;;;;;;;1.60;0.93;;;;;;;20.27;46.47;101964.75;5120134;27;20106;-63
2022/07/04 00:06:29;;;;;;;3.03;1.30;;;;;;;20.25;46.60;101967.72;5118420;28;20131;-63
2022/07/04 00:08:57;;;;;;;2.03;1.08;;;;;;;20.23;46.79;101955.41;5119108;28;20047;-63
2022/07/04 00:11:24;;;;;;;3.33;1.23;;;;;;;20.16;46.77;101955.63;5117353;28;20079;-63
2022/07/04 00:13:52;;;;;;;2.17;1.15;;;;;;;20.19;46.72;101966.03;5108372;28;20086;-63
2022/07/04 00:16:20;;;;;;;3.10;1.20;;;;;;;20.16;46.68;101952.91;5124571;27;20043;-64
2022/07/04 00:18:49;;;;;;;1.75;1.08;;;;;;;20.14;46.82;101953.16;5113449;27;20493;-63
2022/07/04 00:21:17;;;;;;;1.35;0.82;;;;;;;20.00;46.76;101927.38;5107648;28;20090;-63
2022/07/04 00:23:45;;;;;;;3.08;1.23;;;;;;;20.12;47.10;101949.88;5123574;27;20082;-63
2022/07/04 00:26:12;;;;;;;4.45;1.00;;;;;;;20.09;47.02;101952.28;5113890;28;20074;-63
2022/07/04 00:28:40;;;;;;;3.00;0.90;;;;;;;20.08;46.95;101956.91;5131382;27;20396;-63
2022/07/04 00:31:08;;;;;;;1.58;1.02;;;;;;;20.05;46.89;101960.16;5124082;28;20051;-63
2022/07/04 00:33:36;;;;;;;3.00;1.13;;;;;;;20.04;47.03;101957.69;5122929;27;20054;-63
2022/07/04 00:36:05;;;;;;;3.13;1.00;;;;;;;20.03;47.25;101953.31;5105919;27;20036;-63
2022/07/04 00:38:33;;;;;;;1.02;0.80;;;;;;;20.00;47.19;101949.19;5107779;27;20040;-64
2022/07/04 00:41:01;;;;;;;2.67;1.10;;;;;;;19.98;47.24;101951.38;5107625;28;20048;-63
2022/07/04 00:43:29;;;;;;;2.75;1.35;;;;;;;19.96;47.50;101953.53;5109773;28;20082;-63
2022/07/04 00:46:05;;;;;;;2.97;0.93;;;;;;;19.94;47.34;101955.69;5117580;27;20054;-63
2022/07/04 00:48:33;;;;;;;2.55;1.35;;;;;;;19.93;47.54;101951.31;5113803;28;20086;-63
2022/07/04 00:51:01;;;;;;;1.75;1.13;;;;;;;19.91;47.59;101950.75;5117898;28;20067;-63
2022/07/04 00:53:30;;;;;;;3.70;1.00;;;;;;;19.89;47.57;101950.19;5106180;27;20140;-63
2022/07/04 00:55:58;;;;;;;2.15;0.98;;;;;;;19.87;47.46;101944.16;5122480;27;20100;-63
2022/07/04 00:58:25;;;;;;;3.58;1.27;;;;;;;19.88;47.44;101942.25;5110462;28;20075;-63
2022/07/04 01:00:53;;;;;;;4.72;1.40;;;;;;;19.85;47.71;101937.31;5108920;28;20083;-63
2022/07/04 01:03:21;;;;;;;3.00;1.55;;;;;;;19.79;47.61;101941.88;5115372;27;20146;-63
2022/07/04 01:05:49;;;;;;;4.20;1.08;;;;;;;19.82;47.65;101944.09;5119278;28;20530;-63
2022/07/04 01:08:17;;;;;;;2.65;1.05;;;;;;;19.80;47.73;101940.81;5108849;28;20075;-63
2022/07/04 01:10:46;;;;;;;1.17;0.98;;;;;;;19.78;47.71;101935.59;5113255;27;20076;-63
2022/07/04 01:13:21;;;;;;;3.13;1.30;;;;;;;19.75;47.68;101938.84;5112550;27;20377;-63
2022/07/04 01:15:49;;;;;;;2.17;1.02;;;;;;;19.67;47.67;101916.66;5109410;27;20452;-63
2022/07/04 01:18:17;;;;;;;3.25;0.93;;;;;;;19.73;47.73;101937.47;5110335;28;20044;-63
2022/07/04 01:20:46;;;;;;;2.42;1.20;;;;;;;19.66;47.90;101918.56;5112737;28;20123;-64
2022/07/04 01:23:14;;;;;;;3.63;1.13;;;;;;;19.71;47.88;101929.53;5105897;28;20090;-62
2022/07/04 01:25:42;;;;;;;1.25;0.93;;;;;;;19.69;47.67;101926.22;5112248;27;20082;-63
2022/07/04 01:28:10;;;;;;;4.43;1.08;;;;;;;19.66;47.68;101925.91;5117044;28;20563;-63
2022/07/04 01:30:38;;;;;;;4.97;1.30;;;;;;;19.67;48.08;101925.66;5114329;28;20043;-63
2022/07/04 01:33:06;;;;;;;2.15;1.20;;;;;;;19.65;47.85;101925.09;5130928;27;20157;-63
2022/07/04 01:35:34;;;;;;;4.57;1.40;;;;;;;19.64;48.05;101918.00;5121370;27;20040;-63
2022/07/04 01:38:03;;;;;;;2.15;1.10;;;;;;;19.61;47.84;101912.22;5117341;27;20362;-63
2022/07/04 01:40:31;;;;;;;2.22;1.08;;;;;;;19.62;47.91;101914.69;5112707;27;20082;-63
2022/07/04 01:42:59;;;;;;;3.42;1.38;;;;;;;19.61;48.02;101909.50;5111043;28;20508;-63
2022/07/04 01:45:27;;;;;;;3.05;1.45;;;;;;;19.59;47.90;101907.03;5123171;27;20036;-63
2022/07/04 01:47:55;;;;;;;2.47;1.17;;;;;;;19.58;47.83;101901.84;5109356;28;20040;-63
2022/07/04 01:50:23;;;;;;;5.20;1.48;;;;;;;19.53;48.32;101899.06;5105678;28;20052;-63
2022/07/04 01:52:50;;;;;;;4.38;1.40;;;;;;;19.54;48.09;101896.06;5122394;28;20062;-64
2022/07/04 01:55:19;;;;;;;1.90;1.20;;;;;;;19.52;48.09;101900.97;5111953;28;20075;-63
2022/07/04 01:57:47;;;;;;;3.45;1.20;;;;;;;19.50;48.17;101900.34;5114439;28;20421;-63
2022/07/04 02:03:00;;;;;;;2.58;1.10;;;;;;;19.47;48.23;101895.41;5121152;28;20044;-63
2022/07/04 02:05:28;;;;;;;3.55;1.65;;;;;;;19.45;48.41;101897.56;5124576;27;20056;-63
2022/07/04 02:07:56;;;;;;;3.08;1.40;;;;;;;19.43;48.28;101899.72;5107170;28;20079;-62
2022/07/04 02:10:25;;;;;;;3.20;1.55;;;;;;;19.41;48.28;101899.97;5120417;28;20051;-63
2022/07/04 02:13:01;;;;;;;1.95;1.40;;;;;;;19.39;48.31;101901.31;5111324;28;20051;-63
2022/07/04 02:15:30;;;;;;;5.43;1.73;;;;;;;19.36;48.26;101899.91;5109187;27;20072;-63
2022/07/04 02:17:58;;;;;;;1.70;1.35;;;;;;;19.36;48.15;101899.09;5118497;28;20051;-62
2022/07/04 02:20:27;;;;;;;4.10;1.60;;;;;;;19.34;48.17;101896.63;5114774;28;20470;-62
2022/07/04 02:22:55;;;;;;;2.08;1.42;;;;;;;19.32;48.40;101896.06;5116007;28;20422;-63
2022/07/04 02:25:24;;;;;;;2.88;1.30;;;;;;;19.31;48.32;101908.03;5115630;28;20035;-63
2022/07/04 02:27:52;;;;;;;1.52;1.20;;;;;;;19.30;48.45;101897.38;5114824;28;20052;-63
2022/07/04 02:30:20;;;;;;;2.13;1.13;;;;;;;19.27;48.57;101901.44;5113405;28;20071;-63
2022/07/04 02:32:48;;;;;;;2.38;1.73;;;;;;;19.25;48.30;101898.16;5108367;28;20056;-63
2022/07/04 02:35:16;;;;;;;3.20;2.05;;;;;;;19.25;48.36;101900.88;5124246;28;20051;-63
2022/07/04 02:37:44;;;;;;;6.13;1.60;;;;;;;19.21;48.37;101905.19;5118796;28;20074;-63
2022/07/04 02:40:12;;;;;;;3.58;1.35;;;;;;;19.21;48.59;101902.47;5116188;28;20044;-63
2022/07/04 02:42:41;;;;;;;2.70;1.65;;;;;;;19.20;48.47;101903.53;5119225;27;20055;-64
2022/07/04 02:45:09;;;;;;;5.38;1.60;;;;;;;19.18;48.40;101901.06;5119260;27;20071;-63
2022/07/04 02:47:37;;;;;;;4.78;1.70;;;;;;;19.17;48.40;101904.03;5120513;27;20054;-63
2022/07/04 02:50:06;;;;;;;2.20;1.42;;;;;;;19.15;48.43;101904.31;5131051;27;20282;-63
2022/07/04 02:52:33;;;;;;;3.53;1.75;;;;;;;19.13;48.56;101900.19;5126193;27;20048;-63
2022/07/04 02:55:01;;;;;;;2.15;1.65;;;;;;;19.12;48.62;101910.25;5118018;28;20058;-63
2022/07/04 02:57:29;;;;;;;3.17;1.60;;;;;;;19.08;48.63;101917.28;5118694;28;20051;-63
2022/07/04 02:59:58;;;;;;;6.78;1.60;;;;;;;19.10;48.70;101919.75;5127181;28;20055;-63
2022/07/04 03:02:26;;;;;;;2.75;1.50;;;;;;;19.08;48.60;101922.75;5119085;27;20054;-64
2022/07/04 03:04:53;;;;;;;2.88;1.40;;;;;;;19.08;48.58;101921.91;5107091;27;20090;-63
2022/07/04 03:07:21;;;;;;;2.88;1.45;;;;;;;19.06;48.63;101916.75;5117809;27;20060;-63
2022/07/04 03:09:49;;;;;;;4.88;1.35;;;;;;;19.06;48.54;101921.38;5120657;28;20048;-63
2022/07/04 03:12:17;;;;;;;2.85;1.60;;;;;;;19.04;48.65;101923.53;5117669;28;20093;-63
2022/07/04 03:14:44;;;;;;;4.93;1.23;;;;;;;19.02;48.77;101931.94;5129280;27;20086;-63
2022/07/04 03:17:14;;;;;;;2.83;1.40;;;;;;;19.01;48.88;101941.19;5122661;27;20103;-63
2022/07/04 03:19:42;;;;;;;3.58;1.30;;;;;;;19.01;48.73;101940.38;5124188;27;20070;-63
2022/07/04 03:22:09;;;;;;;3.30;1.23;;;;;;;18.99;48.71;101940.63;5119888;27;20044;-63
2022/07/04 03:24:37;;;;;;;2.08;1.55;;;;;;;18.97;48.92;101941.97;5122978;27;20082;-63
2022/07/04 03:27:05;;;;;;;3.95;1.20;;;;;;;18.97;48.83;101955.56;5124105;28;20047;-63
2022/07/04 03:29:33;;;;;;;2.90;1.50;;;;;;;18.95;48.64;101949.56;5122404;28;20051;-63
2022/07/04 03:32:01;;;;;;;2.53;1.48;;;;;;;18.94;48.65;101965.06;5119609;28;20071;-63
2022/07/04 03:34:30;;;;;;;1.63;1.13;;;;;;;18.92;48.77;101956.31;5130352;27;20051;-63
2022/07/04 03:36:58;;;;;;;2.60;1.73;;;;;;;18.91;48.81;101956.56;5115823;27;20048;-63
2022/07/04 03:39:25;;;;;;;4.45;1.88;;;;;;;18.90;48.81;101960.38;5112682;27;20819;-62
2022/07/04 03:41:53;;;;;;;2.25;1.30;;;;;;;18.88;48.76;101967.97;5122643;28;20044;-63
2022/07/04 03:44:21;;;;;;;3.20;1.42;;;;;;;18.87;48.77;101967.16;5118978;28;20099;-63
2022/07/04 03:46:49;;;;;;;2.92;1.20;;;;;;;18.80;48.77;101956.44;5120380;27;20064;-63
2022/07/04 03:49:17;;;;;;;8.23;1.60;;;;;;;18.83;48.75;101974.16;5117749;28;20078;-63
2022/07/04 03:51:46;;;;;;;2.10;1.50;;;;;;;18.82;48.90;101969.78;5122454;28;20047;-63
2022/07/04 03:54:13;;;;;;;1.75;1.33;;;;;;;18.79;48.87;101965.66;5114001;28;20048;-63
2022/07/04 03:56:44;;;;;;;8.77;1.63;;;;;;;18.79;48.86;101973.84;5125522;27;20082;-64
2022/07/04 03:59:12;;;;;;;4.25;1.92;;;;;;;18.76;48.99;101968.91;5108579;28;20052;-63
2022/07/04 04:01:41;;;;;;;3.22;1.40;;;;;;;18.75;48.99;101971.88;5109553;28;20327;-63
2022/07/04 04:06:55;;;;;;;2.08;1.30;;;;;;;18.72;49.00;101985.97;5122312;28;20043;-63
2022/07/04 04:09:24;;;;;;;2.13;1.13;;;;;;;18.70;49.03;101988.94;5116964;27;20072;-63
2022/07/04 04:11:52;;;;;;;2.63;1.80;;;;;;;18.68;49.00;101980.22;5117943;27;20074;-63
2022/07/04 04:14:20;;;;;;;3.38;1.30;;;;;;;18.68;49.06;101980.22;5115680;28;20066;-63
2022/07/04 04:16:48;;;;;;;2.03;1.20;;;;;;;18.67;48.97;101985.91;5130979;27;20084;-63
2022/07/04 04:19:16;;;;;;;4.70;1.35;;;;;;;18.66;48.98;101990.53;5110433;27;20048;-63
2022/07/04 04:21:44;;;;;;;2.08;1.23;;;;;;;18.65;49.01;101997.03;5114772;27;20047;-63
2022/07/04 04:24:13;;;;;;;2.50;1.25;;;;;;;18.62;49.08;101992.09;5128585;27;20108;-63
2022/07/04 04:26:41;;;;;;;2.83;1.50;;;;;;;18.62;49.24;102002.97;5117797;27;20489;-63
2022/07/04 04:29:08;;;;;;;1.10;1.00;;;;;;;18.61;49.13;102008.69;5111866;28;20048;-62
2022/07/04 04:31:36;;;;;;;2.88;1.60;;;;;;;18.60;49.13;102007.00;5119493;28;20082;-62
2022/07/04 04:34:04;;;;;;;2.40;1.58;;;;;;;18.59;49.04;102002.63;5117051;27;20086;-63
2022/07/04 04:36:32;;;;;;;4.18;1.50;;;;;;;18.58;49.33;102004.50;5109229;27;20471;-63
2022/07/04 04:39:00;;;;;;;2.05;1.20;;;;;;;18.58;49.17;102003.69;5109313;28;20083;-63
2022/07/04 04:41:29;;;;;;;3.22;1.48;;;;;;;18.56;49.12;102012.09;5123442;28;20048;-62
2022/07/04 04:43:57;;;;;;;3.05;1.33;;;;;;;18.55;49.19;102005.00;5111646;28;20069;-62
2022/07/04 04:46:24;;;;;;;4.20;1.67;;;;;;;18.54;49.17;102000.63;5108184;28;20074;-63
2022/07/04 04:48:52;;;;;;;3.50;1.38;;;;;;;18.54;49.07;102008.81;5112364;28;20070;-62
2022/07/04 04:51:20;;;;;;;2.55;1.38;;;;;;;18.53;49.14;102007.97;5115112;28;20068;-63
2022/07/04 04:53:48;;;;;;;3.40;1.70;;;;;;;18.52;49.03;101998.16;5113658;28;20051;-64
2022/07/04 04:56:15;;;;;;;3.38;1.75;;;;;;;18.52;49.20;102000.88;5124396;28;20058;-62
2022/07/04 04:58:45;;;;;;;3.70;1.58;;;;;;;18.53;49.08;101994.38;5115808;28;20044;-62
2022/07/04 05:01:12;;;;;;;2.67;1.85;;;;;;;18.54;49.19;101992.47;5123550;27;20047;-62
2022/07/04 05:04:00;;;;;;;3.00;1.73;;;;;;;18.50;49.10;101986.69;5113777;27;20048;-66
2022/07/04 05:06:28;;;;;;;5.68;1.30;;;;;;;18.55;49.16;101991.41;5110993;28;20363;-63
2022/07/04 05:08:56;;;;;;;4.05;1.60;;;;;;;18.56;49.06;101984.06;5123825;28;20488;-63
2022/07/04 05:11:24;;;;;;;4.57;1.60;;;;;;;18.59;49.09;101986.28;5122995;27;20087;-64
2022/07/04 05:13:53;;;;;;;2.05;1.48;;;;;;;18.59;49.13;101983.56;5115664;27;20074;-63
2022/07/04 05:16:20;;;;;;;2.30;1.40;;;;;;;18.61;49.07;101989.63;5126874;27;20055;-65
2022/07/04 05:18:48;;;;;;;4.60;1.90;;;;;;;18.61;49.00;101987.72;5124758;27;20082;-64
2022/07/04 05:21:16;;;;;;;3.70;1.60;;;;;;;18.61;49.20;101985.00;5110333;28;20087;-64
2022/07/04 05:23:44;;;;;;;3.70;1.70;;;;;;;18.63;49.69;101987.47;5115090;28;20047;-62
2022/07/04 05:26:11;;;;;;;3.03;1.50;;;;;;;18.65;49.54;101988.03;5109565;28;20051;-64
2022/07/04 05:28:39;;;;;;;2.05;1.08;;;;;;;18.68;49.30;101991.09;5122105;28;20043;-63
2022/07/04 05:31:08;;;;;;;3.08;1.65;;;;;;;18.69;49.37;101984.59;5114580;27;20043;-62
2022/07/04 05:33:36;;;;;;;3.85;1.35;;;;;;;18.71;49.59;101981.59;5115881;28;20059;-65
2022/07/04 05:36:04;;;;;;;3.45;1.58;;;;;;;18.74;49.72;101992.84;5125269;27;20044;-63
2022/07/04 05:38:31;;;;;;;2.35;1.20;;;;;;;18.76;49.64;101985.25;5126529;27;20048;-63
2022/07/04 05:40:59;;;;;;;6.90;2.13;;;;;;;18.80;49.40;101989.13;5111540;27;20048;-62
2022/07/04 05:43:27;;;;;;;3.25;1.70;;;;;;;18.80;49.83;101986.38;5119235;27;20058;-63
2022/07/04 05:45:55;;;;;;;2.80;1.52;;;;;;;18.82;49.75;101989.69;5117092;28;20055;-64
2022/07/04 05:48:24;;;;;;;3.33;1.42;;;;;;;18.84;49.93;101984.00;5122126;28;20221;-65
2022/07/04 05:50:52;;;;;;;2.72;1.65;;;;;;;18.85;49.90;101985.66;4757592;27;10000011;-65
2022/07/04 05:53:19;;;;;;;5.18;2.20;;;;;;;18.86;50.01;101984.56;5117057;28;20043;-64
2022/07/04 05:55:47;;;;;;;3.90;1.58;;;;;;;18.88;50.07;101996.03;5114779;28;20075;-64
2022/07/04 05:58:15;;;;;;;5.55;1.63;;;;;;;18.90;49.84;101990.34;5106728;28;20083;-63
2022/07/04 06:00:43;;;;;;;4.13;2.30;;;;;;;18.91;50.20;101992.81;5105449;27;20051;-64
2022/07/04 06:03:11;;;;;;;3.20;1.70;;;;;;;18.94;50.15;101994.22;5125223;27;20052;-65
2022/07/04 06:05:40;;;;;;;1.83;1.27;;;;;;;18.95;50.09;101995.88;5111145;27;20051;-64
2022/07/04 06:08:08;;;;;;;5.70;1.60;;;;;;;18.97;50.16;101999.16;5110640;27;20067;-64
2022/07/04 06:10:36;;;;;;;6.13;2.13;;;;;;;18.99;50.57;101997.84;5117462;27;20081;-64
2022/07/04 06:13:05;;;;;;;8.25;2.05;;;;;;;19.00;50.44;101998.66;4754657;27;10000526;-62
2022/07/04 06:15:36;;;;;;;5.57;1.55;;;;;;;19.02;50.70;101994.63;5120065;28;20069;-64
2022/07/04 06:18:04;;;;;;;5.68;2.05;;;;;;;18.99;50.58;101983.41;5121764;28;20043;-64
2022/07/04 06:20:32;;;;;;;3.53;1.77;;;;;;;19.02;50.70;101985.63;5123488;28;20086;-64
2022/07/04 06:23:02;;;;;;;2.20;1.52;;;;;;;19.09;50.44;101986.25;5121061;28;20047;-65
2022/07/04 06:25:29;;;;;;;5.80;1.80;;;;;;;19.11;50.60;101993.09;5118352;28;20056;-65
2022/07/04 06:27:57;;;;;;;3.15;1.63;;;;;;;19.14;50.72;102000.75;5117284;28;20047;-64
2022/07/04 06:30:25;;;;;;;3.67;2.00;;;;;;;19.16;50.69;102001.34;5118069;28;20101;-65
2022/07/04 06:32:55;;;;;;;4.18;2.40;;;;;;;19.20;51.09;102001.66;5114325;28;20079;-64
2022/07/04 06:38:14;;;;;;;;;;;;;;;19.27;51.00;102015.94;5096360;28;20128;-63
2022/07/04 06:40:47;;;;;;;3.25;1.60;;;;;;;19.30;50.97;102004.53;4386920;27;10001273;-63
2022/07/04 06:43:15;;;;;;;4.03;1.92;;;;;;;19.32;50.90;102005.09;5093830;28;20425;-63
2022/07/04 06:45:43;;;;;;;2.95;1.92;;;;;;;19.34;51.21;102002.13;5084313;28;20057;-64
2022/07/04 06:48:10;;;;;;;4.10;2.13;;;;;;;19.33;51.08;101995.84;5088648;28;20048;-63
2022/07/04 06:50:44;;;;;;;3.28;1.90;;;;;;;19.34;51.30;101993.94;5090769;28;20049;-66
2022/07/04 06:53:13;;;;;;;6.15;1.60;;;;;;;19.36;51.60;101994.50;5088422;28;20107;-63
2022/07/04 06:55:42;;;;;;;5.15;2.13;;;;;;;19.36;51.38;101997.25;5090294;28;20179;-63
2022/07/04 06:58:12;;;;;;;5.07;2.25;;;;;;;19.35;51.12;102001.88;5088025;28;20048;-62
2022/07/04 07:00:41;;;;;;;4.90;2.20;;;;;;;19.35;51.57;101993.69;5088236;28;20065;-62
2022/07/04 07:03:11;;;;;;;5.78;1.73;;;;;;;19.34;51.61;101994.78;5095118;28;20062;-62
2022/07/04 07:05:39;;;;;;;5.15;1.70;;;;;;;19.33;51.55;101995.84;5085989;28;20078;-62
2022/07/04 07:08:27;;;;;;;;;;;;;;;19.32;51.63;101994.19;5094958;28;20661;-64
2022/07/04 07:10:55;;;;;;;4.75;1.45;;;;;;;19.35;52.25;101998.31;5094009;28;20015;-64
2022/07/04 07:13:23;;;;;;;3.17;1.20;;;;;;;19.58;52.90;101997.28;5099817;28;20339;-65
2022/07/04 07:15:51;;;;;;;2.63;1.38;;;;;;;19.57;52.85;101980.09;5111347;28;20079;-64
2022/07/04 07:18:19;;;;;;;1.95;1.35;;;;;;;19.58;52.02;101989.94;5106417;28;20039;-64
2022/07/04 07:20:47;;;;;;;3.15;1.35;;;;;;;19.46;51.86;101987.28;5108306;28;20048;-62
2022/07/04 07:23:15;;;;;;;4.80;1.67;;;;;;;19.39;51.89;101983.94;5114008;28;20052;-62
2022/07/04 07:25:44;;;;;;;4.32;1.80;;;;;;;19.35;52.19;101980.06;5117063;28;20048;-61
2022/07/04 07:28:13;;;;;;;4.28;1.52;;;;;;;19.35;52.60;101985.50;5107651;28;20043;-62
2022/07/04 07:30:41;;;;;;;3.25;1.27;;;;;;;19.34;52.48;101981.13;5106923;28;20426;-63
2022/07/04 07:33:08;;;;;;;6.13;1.80;;;;;;;19.34;52.53;101983.03;5115132;28;20040;-63
2022/07/04 07:35:36;;;;;;;5.32;1.70;;;;;;;19.43;52.61;101981.53;5112163;28;20100;-65
2022/07/04 07:38:06;;;;;;;6.20;1.85;;;;;;;19.36;52.26;101981.72;5110904;27;20051;-62
2022/07/04 07:40:34;;;;;;;4.63;1.48;;;;;;;19.35;52.80;101974.59;5110228;28;20073;-62
2022/07/04 07:43:03;;;;;;;6.10;1.70;;;;;;;19.35;52.59;101980.06;5109562;28;20066;-62
2022/07/04 07:45:30;;;;;;;3.47;1.60;;;;;;;19.40;52.47;101982.84;5106382;28;20048;-63
2022/07/04 07:47:58;;;;;;;3.45;1.40;;;;;;;19.63;52.46;101970.91;5109775;28;20178;-63
2022/07/04 07:50:28;;;;;;;2.60;0.88;;;;;;;19.50;52.32;101982.97;5115948;28;20074;-63
2022/07/04 07:52:56;;;;;;;7.57;1.45;;;;;;;19.53;52.41;101984.41;5112370;28;20098;-63
2022/07/04 07:55:25;;;;;;;3.88;1.05;;;;;;;19.61;52.38;101978.50;5106743;28;20512;-63
2022/07/04 07:57:53;;;;;;;3.33;1.15;;;;;;;19.57;52.37;101990.19;5105181;28;20052;-63
2022/07/04 08:00:25;;;;;;;4.28;1.20;;;;;;;19.57;53.00;101977.38;5110928;28;20090;-63
2022/07/04 08:05:59;;;;;;;5.30;1.90;;;;;;;19.59;52.20;101960.75;5112831;28;20110;-63
2022/07/04 08:08:26;;;;;;;4.65;1.27;;;;;;;19.72;52.65;101961.19;5119118;28;20040;-62
2022/07/04 08:10:54;;;;;;;4.97;1.52;;;;;;;19.61;52.34;101962.16;5116989;28;20044;-62
2022/07/04 08:13:22;;;;;;;5.13;1.17;;;;;;;19.85;52.60;101957.22;5109280;28;20055;-62
2022/07/04 08:15:51;;;;;;;2.65;1.20;;;;;;;19.88;52.00;101973.09;5104483;28;20514;-62
2022/07/04 08:18:19;;;;;;;2.67;1.08;;;;;;;19.89;52.12;101961.09;5115556;28;20078;-62
2022/07/04 08:20:47;;;;;;;3.00;1.00;;;;;;;19.77;52.40;101965.88;5113188;28;20056;-62
2022/07/04 08:23:30;;;;;;;4.88;1.20;;;;;;;19.78;52.85;101972.97;5108300;28;20084;-62
2022/07/04 08:25:58;;;;;;;8.00;1.52;;;;;;;19.68;52.30;101984.59;5109232;28;20101;-62
2022/07/04 08:28:26;;;;;;;3.45;1.02;;;;;;;19.67;52.26;101987.56;5107608;28;20059;-63
2022/07/04 08:30:56;;;;;;;3.97;1.98;;;;;;;19.66;52.40;101977.75;5108453;28;20058;-62
2022/07/04 08:33:24;;;;;;;3.10;1.45;;;;;;;19.72;52.65;101982.19;5118321;27;20077;-63
2022/07/04 08:35:53;;;;;;;7.57;1.65;;;;;;;19.69;52.84;101980.78;5112177;28;20051;-62
2022/07/04 08:38:21;;;;;;;4.78;1.00;;;;;;;19.85;52.92;101989.97;5111562;27;20052;-62
2022/07/04 08:40:51;;;;;;;3.28;1.13;;;;;;;19.67;52.39;101979.38;5110115;28;20048;-63
2022/07/04 08:43:24;;;;;;;4.35;1.20;;;;;;;19.69;52.85;101985.41;5103884;28;20048;-63
2022/07/04 08:45:55;;;;;;;6.32;1.10;;;;;;;19.89;53.03;101982.09;5104299;28;20087;-62
2022/07/04 08:48:51;;;;;;;6.85;1.30;;;;;;;19.90;52.89;101981.00;5108106;28;20108;-62
2022/07/04 08:51:30;;;;;;;3.60;1.17;;;;;;;19.86;52.79;101988.88;5108086;28;20078;-64
2022/07/04 08:53:58;;;;;;;3.83;1.67;;;;;;;19.79;52.57;101982.81;5109764;28;20047;-62
2022/07/04 08:59:15;;;;;;;3.10;1.10;;;;;;;19.81;52.71;101994.28;5110926;28;20047;-63
2022/07/04 09:01:45;;;;;;;5.05;1.15;;;;;;;19.81;52.86;101995.09;5112836;28;20066;-62
2022/07/04 09:04:14;;;;;;;3.90;1.17;;;;;;;19.91;52.86;101990.84;5107736;28;20103;-63
2022/07/04 09:06:43;;;;;;;1.83;1.33;;;;;;;19.86;52.65;101993.53;5110227;28;20063;-62
2022/07/04 09:09:11;;;;;;;3.75;0.88;;;;;;;19.82;52.54;101994.03;5106549;28;20044;-63
2022/07/04 09:11:39;;;;;;;3.33;1.25;;;;;;;19.87;52.86;101996.00;5106492;28;20481;-62
2022/07/04 09:14:07;;;;;;;1.80;0.93;;;;;;;19.88;52.84;101994.91;5115481;28;20067;-62
2022/07/04 09:16:34;;;;;;;3.28;1.05;;;;;;;19.87;52.59;101989.72;5106985;28;21710;-62
2022/07/04 09:19:04;;;;;;;5.65;1.58;;;;;;;19.87;52.71;101995.16;5112829;28;20063;-62
2022/07/04 09:21:45;;;;;;;4.75;0.88;;;;;;;19.87;52.53;101993.25;5112065;28;20052;-62
2022/07/04 09:24:13;;;;;;;3.38;1.08;;;;;;;19.86;52.54;102001.72;5105526;28;20121;-62
2022/07/04 09:26:44;;;;;;;8.50;1.45;;;;;;;19.86;52.29;101997.06;5117354;28;20188;-63
2022/07/04 09:29:13;;;;;;;2.83;0.82;;;;;;;19.87;52.10;101992.44;5105072;28;20048;-63
2022/07/04 09:31:41;;;;;;;2.42;1.35;;;;;;;19.90;52.41;101986.47;5111933;28;20058;-63
2022/07/04 09:34:10;;;;;;;4.07;1.40;;;;;;;19.91;52.53;101988.94;5114169;28;20048;-63
2022/07/04 09:36:41;;;;;;;1.77;0.90;;;;;;;19.93;52.18;101991.41;5109484;28;20097;-63
2022/07/04 09:39:14;;;;;;;3.58;1.10;;;;;;;19.95;52.34;101995.53;5106744;28;20078;-63
2022/07/04 09:41:58;;;;;;;3.00;0.93;;;;;;;20.04;53.25;101972.16;5108282;28;20127;-63
2022/07/04 09:44:28;;;;;;;3.85;0.95;;;;;;;20.10;52.96;101987.50;5121644;27;20080;-63
2022/07/04 09:46:57;;;;;;;1.77;0.77;;;;;;;20.14;52.77;101985.09;5108115;28;20048;-63
2022/07/04 09:49:26;;;;;;;3.72;1.10;;;;;;;20.14;52.48;101983.19;5112885;28;20051;-63
2022/07/04 09:51:56;;;;;;;3.42;1.02;;;;;;;20.18;52.47;101986.22;5108146;27;21439;-61
2022/07/04 09:54:27;;;;;;;2.72;1.15;;;;;;;20.22;52.17;101984.63;4758556;27;9999842;-62
2022/07/04 09:56:57;;;;;;;2.08;0.85;;;;;;;20.23;52.24;101986.28;5113565;27;20062;-61
2022/07/04 09:59:27;;;;;;;2.45;1.13;;;;;;;20.24;52.08;101976.19;5113175;27;20067;-61
2022/07/04 10:02:08;;;;;;;4.72;1.10;;;;;;;20.26;51.77;101984.94;5109878;28;20047;-62
2022/07/04 10:04:46;;;;;;;2.65;0.80;;;;;;;20.26;51.78;101977.56;5105880;27;20048;-62
2022/07/04 10:07:31;;;;;;;4.22;1.25;;;;;;;20.34;52.02;101979.00;5117920;27;20096;-62
2022/07/04 10:09:59;;;;;;;1.77;0.93;;;;;;;20.38;52.23;101980.13;5108801;27;20394;-62
2022/07/04 10:12:28;;;;;;;3.75;1.23;;;;;;;20.37;52.30;101964.81;5109868;27;20403;-62
2022/07/04 10:14:56;;;;;;;1.33;0.80;;;;;;;20.45;51.99;101983.50;5118694;27;20070;-61
2022/07/04 10:17:24;;;;;;;2.30;0.95;;;;;;;20.54;51.94;101981.13;5111323;28;20077;-61
2022/07/04 10:19:54;;;;;;;3.30;1.02;;;;;;;20.53;52.08;101968.53;5103569;28;20476;-61
2022/07/04 10:22:23;;;;;;;2.03;1.02;;;;;;;20.67;51.86;101973.31;5113572;28;20186;-61
2022/07/04 10:24:51;;;;;;;3.88;1.15;;;;;;;20.71;52.17;101968.97;5111572;28;20751;-61
2022/07/04 10:27:19;;;;;;;2.92;1.35;;;;;;;20.68;52.14;101966.75;5111671;28;20563;-62
2022/07/04 10:29:47;;;;;;;3.28;1.10;;;;;;;20.74;52.13;101967.59;5117050;28;20051;-60
2022/07/04 10:32:16;;;;;;;2.85;1.10;;;;;;;20.76;51.86;101974.47;5117663;28;20059;-61
2022/07/04 10:34:43;;;;;;;3.13;1.20;;;;;;;20.78;51.86;101976.94;5116219;28;20477;-62
2022/07/04 10:37:13;;;;;;;2.97;1.08;;;;;;;20.78;51.80;101966.81;5108465;28;20059;-62
2022/07/04 10:39:41;;;;;;;1.85;0.63;;;;;;;20.82;51.71;101969.81;5112354;28;20052;-62
2022/07/04 10:42:09;;;;;;;1.27;0.90;;;;;;;20.85;51.81;101965.75;5113458;28;20052;-62
2022/07/04 10:44:43;;;;;;;2.33;0.88;;;;;;;20.85;51.99;101965.75;5106736;28;20056;-62
2022/07/04 10:47:24;;;;;;;2.63;1.05;;;;;;;21.04;52.13;101964.22;5112480;28;20168;-64
2022/07/04 10:49:55;;;;;;;2.30;0.80;;;;;;;21.09;52.00;101956.88;5107437;28;20040;-62
2022/07/04 10:52:24;;;;;;;2.00;0.93;;;;;;;21.26;51.71;101951.25;5112036;28;20071;-62
2022/07/04 10:54:52;;;;;;;4.03;1.17;;;;;;;21.23;51.82;101942.75;5113517;28;20094;-62
2022/07/04 10:57:21;;;;;;;4.25;1.05;;;;;;;21.31;51.76;101950.44;5115426;28;20132;-62
2022/07/04 11:00:05;;;;;;;4.70;1.50;;;;;;;21.38;50.93;101957.31;5108574;28;20044;-62
2022/07/04 11:02:34;;;;;;;2.05;1.10;;;;;;;21.43;51.74;101956.50;5108328;28;20101;-62
2022/07/04 11:05:05;;;;;;;1.90;1.08;;;;;;;21.46;51.59;101955.16;5119256;28;20044;-63
2022/07/04 11:08:06;;;;;;;2.47;0.90;;;;;;;21.50;51.69;101956.25;5113777;28;20181;-63
2022/07/04 11:10:38;;;;;;;3.85;1.10;;;;;;;21.55;50.88;101937.13;5119162;28;20556;-63
2022/07/04 11:13:24;;;;;;;1.75;1.00;;;;;;;21.64;51.21;101941.00;5115670;28;20116;-63
2022/07/04 11:16:05;;;;;;;7.22;1.25;;;;;;;21.61;50.68;101936.88;5118891;27;20071;-62
2022/07/04 11:18:43;;;;;;;3.22;1.23;;;;;;;21.79;49.85;101932.00;5109995;28;20419;-62
2022/07/04 11:21:23;;;;;;;3.53;1.15;;;;;;;21.77;50.90;101929.53;5118761;27;20044;-63
2022/07/04 11:23:56;;;;;;;1.98;1.05;;;;;;;21.77;50.14;101935.84;5103172;28;20051;-63
2022/07/04 11:26:25;;;;;;;2.22;0.98;;;;;;;21.75;50.08;101932.53;5113142;27;20391;-63
2022/07/04 11:28:53;;;;;;;1.58;0.90;;;;;;;21.77;50.13;101926.81;5122557;27;20129;-63
2022/07/04 11:31:21;;;;;;;3.35;1.17;;;;;;;21.81;50.18;101918.88;5119186;28;20059;-63
2022/07/04 11:33:55;;;;;;;4.88;0.90;;;;;;;21.83;50.15;101913.94;5114321;27;20059;-63
2022/07/04 11:36:23;;;;;;;2.03;1.17;;;;;;;21.85;49.78;101929.00;5113884;27;20052;-64
2022/07/04 11:38:56;;;;;;;2.67;0.93;;;;;;;21.89;49.31;101919.16;5121742;27;20302;-64
2022/07/04 11:47:12;;;;;;;2.75;1.45;;;;;;;22.08;49.27;101916.75;5115918;27;20056;-63
2022/07/04 11:49:49;;;;;;;1.52;0.90;;;;;;;22.08;49.00;101912.09;5114360;27;20051;-62
2022/07/04 11:52:19;;;;;;;5.07;1.27;;;;;;;22.17;48.80;101909.63;5121735;28;20473;-62
2022/07/04 11:55:07;;;;;;;2.55;1.10;;;;;;;22.24;49.02;101901.97;5129534;27;20149;-63